Time,TemperatureF,DewpointF,PressureIn,WindDirection,WindDirectionDegrees,WindSpeedMPH,WindSpeedGustMPH,Humidity,HourlyPrecipIn,Conditions,Clouds,dailyrainin,SoftwareType,DateUTC
2013-06-07 00:03:00,53.0,52.0,30.09,ESE,121,0.0,0.0,95,0.07,,,0.12,,2013-06-07 04:03:00,
2013-06-07 00:12:00,53.0,52.0,30.09,ESE,121,0.0,0.0,95,0.07,,,0.12,,2013-06-07 04:12:00,
2013-06-07 00:23:00,53.0,52.0,30.09,ESE,121,0.0,0.0,95,0.05,,,0.14,,2013-06-07 04:23:00,
2013-06-07 00:33:00,53.0,52.0,30.08,ESE,121,0.0,0.0,95,0.04,,,0.15,,2013-06-07 04:33:00,
2013-06-07 00:42:00,53.0,52.0,30.08,ESE,121,0.0,0.0,95,0.04,,,0.15,,2013-06-07 04:42:00,
2013-06-07 00:53:00,52.0,51.0,30.07,ESE,121,0.0,0.0,95,0.06,,,0.17,,2013-06-07 04:53:00,
2013-06-07 01:03:00,52.0,51.0,30.07,ESE,121,0.0,0.0,96,0.06,,,0.18,,2013-06-07 05:03:00,
2013-06-07 01:12:00,52.0,51.0,30.07,ESE,121,0.0,0.0,96,0.06,,,0.18,,2013-06-07 05:12:00,
2013-06-07 01:22:00,52.0,51.0,30.06,ESE,121,0.0,0.0,96,0.00,,,0.03,,2013-06-07 05:22:00,
2013-06-07 01:32:00,52.0,51.0,30.05,ESE,121,0.0,1.0,96,0.00,,,0.03,,2013-06-07 05:32:00,
2013-06-07 01:42:00,52.0,51.0,30.05,ESE,121,0.0,1.0,96,0.00,,,0.03,,2013-06-07 05:42:00,
2013-06-07 01:52:00,52.0,51.0,30.05,ESE,113,0.0,2.0,96,0.00,,,0.00,,2013-06-07 05:52:00,
2013-06-07 02:02:00,52.0,51.0,30.04,ESE,113,0.0,0.0,96,0.01,,,0.01,,2013-06-07 06:02:00,
2013-06-07 02:12:00,52.0,51.0,30.04,ESE,113,0.0,0.0,96,0.01,,,0.01,,2013-06-07 06:12:00,
2013-06-07 02:22:00,53.0,52.0,30.04,East,98,0.0,4.0,96,0.02,,,0.02,,2013-06-07 06:22:00,
2013-06-07 02:32:00,53.0,52.0,30.04,SSE,155,1.0,3.0,96,0.03,,,0.03,,2013-06-07 06:32:00,
2013-06-07 02:42:00,53.0,52.0,30.04,SSE,155,1.0,3.0,96,0.03,,,0.03,,2013-06-07 06:42:00,
2013-06-07 02:52:00,52.0,51.0,30.04,SSE,155,0.0,5.0,96,0.04,,,0.04,,2013-06-07 06:52:00,
2013-06-07 03:02:00,52.0,51.0,30.04,NW,308,0.0,3.0,96,0.04,,,0.05,,2013-06-07 07:02:00,
2013-06-07 03:12:00,52.0,51.0,30.04,NW,308,0.0,3.0,96,0.04,,,0.05,,2013-06-07 07:12:00,
2013-06-07 03:22:00,52.0,51.0,30.04,NE,42,0.0,4.0,96,0.06,,,0.08,,2013-06-07 07:22:00,
2013-06-07 03:32:00,52.0,51.0,30.04,NE,43,0.0,2.0,96,0.07,,,0.10,,2013-06-07 07:32:00,
2013-06-07 03:42:00,52.0,51.0,30.04,NE,43,0.0,2.0,96,0.07,,,0.10,,2013-06-07 07:42:00,
2013-06-07 03:52:00,52.0,51.0,30.04,ENE,61,5.0,7.0,96,0.07,,,0.11,,2013-06-07 07:52:00,
2013-06-07 04:02:00,51.0,50.0,30.03,SE,127,1.0,4.0,96,0.07,,,0.12,,2013-06-07 08:02:00,
2013-06-07 04:12:00,51.0,50.0,30.03,SE,127,1.0,4.0,96,0.07,,,0.12,,2013-06-07 08:12:00,
2013-06-07 04:22:00,51.0,50.0,30.03,SE,127,0.0,1.0,96,0.01,,,0.02,,2013-06-07 08:22:00,
2013-06-07 04:32:00,51.0,50.0,30.04,SE,126,0.0,1.0,96,0.02,,,0.03,,2013-06-07 08:32:00,
2013-06-07 04:43:00,51.0,50.0,30.04,SE,126,0.0,1.0,96,0.02,,,0.03,,2013-06-07 08:43:00,
2013-06-07 04:52:00,51.0,50.0,30.04,SE,134,0.0,2.0,96,0.03,,,0.03,,2013-06-07 08:52:00,
2013-06-07 05:02:00,51.0,50.0,30.04,NW,323,0.0,2.0,96,0.04,,,0.04,,2013-06-07 09:02:00,
2013-06-07 05:12:00,51.0,50.0,30.04,NW,323,0.0,2.0,96,0.04,,,0.04,,2013-06-07 09:12:00,
2013-06-07 05:22:00,51.0,50.0,30.04,NW,323,0.0,2.0,96,0.05,,,0.06,,2013-06-07 09:22:00,
2013-06-07 05:32:00,51.0,50.0,30.05,NW,323,1.0,2.0,96,0.06,,,0.08,,2013-06-07 09:32:00,
2013-06-07 05:43:00,51.0,50.0,30.05,NW,323,1.0,2.0,96,0.06,,,0.08,,2013-06-07 09:43:00,
2013-06-07 05:53:00,50.0,49.0,30.05,North,351,0.0,5.0,96,0.07,,,0.10,,2013-06-07 09:53:00,
2013-06-07 06:03:00,50.0,49.0,30.05,NNW,348,0.0,1.0,96,0.07,,,0.11,,2013-06-07 10:03:00,
2013-06-07 06:13:00,50.0,49.0,30.05,NNW,348,0.0,1.0,96,0.07,,,0.11,,2013-06-07 10:13:00,
2013-06-07 06:23:00,50.0,49.0,30.05,NNW,332,0.0,5.0,96,0.07,,,0.13,,2013-06-07 10:23:00,
2013-06-07 06:33:00,49.0,48.0,30.05,NNW,332,0.0,4.0,95,0.06,,,0.14,,2013-06-07 10:33:00,
2013-06-07 06:42:00,49.0,48.0,30.05,NNW,332,0.0,4.0,95,0.06,,,0.14,,2013-06-07 10:42:00,
2013-06-07 06:53:00,49.0,48.0,30.05,NNE,25,1.0,4.0,95,0.04,,,0.14,,2013-06-07 10:53:00,
2013-06-07 07:02:00,49.0,48.0,30.05,NNE,25,0.0,0.0,95,0.03,,,0.14,,2013-06-07 11:02:00,
2013-06-07 07:12:00,49.0,48.0,30.05,NNE,25,0.0,0.0,95,0.03,,,0.14,,2013-06-07 11:12:00,
2013-06-07 07:22:00,49.0,48.0,30.05,NNE,25,0.0,0.0,96,0.00,,,0.01,,2013-06-07 11:22:00,
2013-06-07 07:32:00,49.0,48.0,30.06,NNE,25,0.0,1.0,96,0.00,,,0.01,,2013-06-07 11:32:00,
2013-06-07 07:42:00,49.0,48.0,30.06,NNE,25,0.0,1.0,96,0.00,,,0.01,,2013-06-07 11:42:00,
2013-06-07 07:52:00,49.0,48.0,30.05,NNE,25,0.0,0.0,96,0.02,,,0.02,,2013-06-07 11:52:00,
2013-06-07 08:02:00,50.0,49.0,30.05,NNE,25,0.0,1.0,96,0.04,,,0.04,,2013-06-07 12:02:00,
2013-06-07 08:12:00,50.0,49.0,30.05,NNE,25,0.0,1.0,96,0.04,,,0.04,,2013-06-07 12:12:00,
2013-06-07 08:22:00,50.0,49.0,30.05,NNE,25,0.0,1.0,96,0.05,,,0.05,,2013-06-07 12:22:00,
2013-06-07 08:32:00,50.0,49.0,30.07,SW,233,4.0,6.0,96,0.07,,,0.07,,2013-06-07 12:32:00,
2013-06-07 08:42:00,50.0,49.0,30.07,SW,233,4.0,6.0,96,0.07,,,0.07,,2013-06-07 12:42:00,
2013-06-07 08:52:00,50.0,49.0,30.06,SSW,196,1.0,6.0,96,0.07,,,0.09,,2013-06-07 12:52:00,
2013-06-07 09:02:00,50.0,49.0,30.06,SW,219,0.0,1.0,96,0.06,,,0.10,,2013-06-07 13:02:00,
2013-06-07 09:13:00,50.0,49.0,30.06,SW,219,0.0,1.0,96,0.06,,,0.10,,2013-06-07 13:13:00,
2013-06-07 09:22:00,50.0,49.0,30.06,SW,219,0.0,0.0,96,0.05,,,0.10,,2013-06-07 13:22:00,
2013-06-07 09:32:00,50.0,49.0,30.06,SW,219,0.0,1.0,96,0.04,,,0.11,,2013-06-07 13:32:00,
2013-06-07 09:42:00,50.0,49.0,30.06,SW,219,0.0,1.0,96,0.04,,,0.11,,2013-06-07 13:42:00,
2013-06-07 09:52:00,50.0,49.0,30.06,SW,219,0.0,1.0,96,0.03,,,0.12,,2013-06-07 13:52:00,
2013-06-07 10:02:00,51.0,50.0,30.06,SW,219,1.0,4.0,96,0.03,,,0.13,,2013-06-07 14:02:00,
2013-06-07 10:12:00,51.0,50.0,30.06,SW,219,1.0,4.0,96,0.03,,,0.13,,2013-06-07 14:12:00,
2013-06-07 10:23:00,51.0,50.0,30.06,SW,220,0.0,5.0,96,0.04,,,0.14,,2013-06-07 14:23:00,
2013-06-07 10:33:00,51.0,50.0,30.06,South,190,1.0,14.0,95,0.03,,,0.14,,2013-06-07 14:33:00,
2013-06-07 10:42:00,51.0,50.0,30.06,South,190,1.0,14.0,95,0.03,,,0.14,,2013-06-07 14:42:00,
2013-06-07 10:52:00,51.0,49.0,30.07,SW,215,1.0,7.0,93,0.02,,,0.14,,2013-06-07 14:52:00,
2013-06-07 11:02:00,51.0,49.0,30.06,South,173,2.0,7.0,93,0.03,,,0.16,,2013-06-07 15:02:00,
2013-06-07 11:12:00,51.0,49.0,30.06,South,173,2.0,7.0,93,0.03,,,0.16,,2013-06-07 15:12:00,
2013-06-07 11:23:00,51.0,49.0,30.06,SSW,192,4.0,8.0,92,0.00,,,0.02,,2013-06-07 15:23:00,
2013-06-07 11:33:00,51.0,49.0,30.06,South,176,0.0,4.0,92,0.00,,,0.02,,2013-06-07 15:33:00,
2013-06-07 11:43:00,51.0,49.0,30.06,South,176,0.0,4.0,92,0.00,,,0.02,,2013-06-07 15:43:00,
2013-06-07 11:53:00,51.0,49.0,30.06,SSW,192,0.0,5.0,92,0.00,,,0.00,,2013-06-07 15:53:00,
2013-06-07 12:03:00,52.0,50.0,30.05,SSW,204,0.0,4.0,93,0.00,,,0.00,,2013-06-07 16:03:00,
2013-06-07 12:13:00,52.0,50.0,30.05,SSW,204,0.0,4.0,93,0.00,,,0.00,,2013-06-07 16:13:00,
2013-06-07 12:22:00,52.0,50.0,30.05,SSW,203,0.0,1.0,93,0.00,,,0.00,,2013-06-07 16:22:00,
2013-06-07 12:33:00,52.0,50.0,30.05,SSW,203,0.0,2.0,93,0.02,,,0.02,,2013-06-07 16:33:00,
2013-06-07 12:43:00,52.0,50.0,30.05,SSW,203,0.0,2.0,93,0.02,,,0.02,,2013-06-07 16:43:00,
2013-06-07 12:53:00,52.0,50.0,30.04,SSW,201,0.0,5.0,93,0.02,,,0.02,,2013-06-07 16:53:00,
2013-06-07 13:03:00,52.0,50.0,30.03,SSW,201,0.0,1.0,94,0.03,,,0.03,,2013-06-07 17:03:00,
2013-06-07 13:13:00,52.0,50.0,30.03,SSW,201,0.0,1.0,94,0.03,,,0.03,,2013-06-07 17:13:00,
2013-06-07 13:23:00,52.0,50.0,30.03,SSW,201,0.0,2.0,94,0.03,,,0.03,,2013-06-07 17:23:00,
2013-06-07 13:32:00,52.0,50.0,30.03,SSW,201,1.0,2.0,93,0.01,,,0.03,,2013-06-07 17:32:00,
2013-06-07 13:43:00,52.0,50.0,30.03,SSW,201,1.0,2.0,93,0.01,,,0.03,,2013-06-07 17:43:00,
2013-06-07 13:52:00,53.0,51.0,30.03,SSW,201,0.0,2.0,94,0.01,,,0.03,,2013-06-07 17:52:00,
2013-06-07 14:20:00,53.0,51.0,30.03,WSW,242,0.0,4.0,93,0.00,,,0.03,,2013-06-07 18:20:00,
2013-06-07 14:26:00,53.0,51.0,30.02,WSW,244,1.0,4.0,93,0.01,,,0.04,,2013-06-07 18:26:00,
2013-06-07 14:36:00,53.0,51.0,30.02,WSW,244,0.0,1.0,93,0.01,,,0.04,,2013-06-07 18:36:00,
2013-06-07 14:45:00,53.0,51.0,30.02,WSW,244,0.0,1.0,93,0.01,,,0.04,,2013-06-07 18:45:00,
2013-06-07 15:00:00,53.0,51.0,30.02,WSW,244,0.0,1.0,93,0.01,,,0.04,,2013-06-07 19:00:00,
2013-06-07 15:08:00,53.0,51.0,30.02,WSW,245,2.0,4.0,93,0.01,,,0.04,,2013-06-07 19:08:00,
2013-06-07 15:15:00,53.0,51.0,30.02,WSW,245,2.0,4.0,93,0.01,,,0.04,,2013-06-07 19:15:00,
2013-06-07 15:29:00,54.0,52.0,30.02,WSW,245,0.0,2.0,93,0.01,,,0.01,,2013-06-07 19:29:00,
2013-06-07 15:59:00,54.0,52.0,30.01,WSW,241,0.0,2.0,93,0.01,,,0.01,,2013-06-07 19:59:00,
2013-06-07 16:07:00,54.0,52.0,30.01,WSW,242,0.0,4.0,93,0.01,,,0.01,,2013-06-07 20:07:00,
2013-06-07 16:27:00,53.0,51.0,30.00,West,265,0.0,5.0,93,0.00,,,0.01,,2013-06-07 20:27:00,
2013-06-07 16:38:00,53.0,51.0,30.01,WSW,246,0.0,1.0,93,0.00,,,0.01,,2013-06-07 20:38:00,
2013-06-07 16:47:00,53.0,51.0,30.01,WSW,246,0.0,1.0,93,0.00,,,0.01,,2013-06-07 20:47:00,
2013-06-07 16:58:00,53.0,51.0,30.00,WSW,246,2.0,5.0,93,0.00,,,0.01,,2013-06-07 20:58:00,
2013-06-07 17:05:00,53.0,51.0,30.00,WSW,246,0.0,1.0,94,0.01,,,0.02,,2013-06-07 21:05:00,
2013-06-07 17:19:00,53.0,51.0,30.00,WSW,246,0.0,1.0,94,0.01,,,0.02,,2013-06-07 21:19:00,
2013-06-07 17:29:00,54.0,52.0,29.99,WSW,246,1.0,2.0,94,0.02,,,0.03,,2013-06-07 21:29:00,
2013-06-07 17:39:00,53.0,51.0,29.98,WSW,246,0.0,0.0,94,0.02,,,0.03,,2013-06-07 21:39:00,
2013-06-07 18:02:00,53.0,51.0,29.98,SSE,168,1.0,4.0,93,0.02,,,0.03,,2013-06-07 22:02:00,
2013-06-07 18:08:00,53.0,51.0,29.98,SW,214,1.0,4.0,93,0.02,,,0.04,,2013-06-07 22:08:00,
2013-06-07 18:22:00,53.0,51.0,29.98,SW,214,1.0,4.0,93,0.02,,,0.04,,2013-06-07 22:22:00,
2013-06-07 18:28:00,53.0,51.0,29.98,SW,215,0.0,1.0,94,0.02,,,0.04,,2013-06-07 22:28:00,
2013-06-07 18:38:00,53.0,51.0,29.98,SW,214,0.0,4.0,93,0.06,,,0.08,,2013-06-07 22:38:00,
2013-06-07 18:47:00,53.0,51.0,29.98,SW,214,0.0,4.0,93,0.06,,,0.08,,2013-06-07 22:47:00,
2013-06-07 19:00:00,53.0,51.0,29.98,SW,214,0.0,0.0,94,0.08,,,0.08,,2013-06-07 23:00:00,
2013-06-07 19:19:00,52.0,50.0,29.97,SW,214,0.0,0.0,94,0.12,,,0.12,,2013-06-07 23:19:00,
2013-06-07 19:31:00,52.0,50.0,29.97,SW,214,0.0,0.0,94,0.11,,,0.13,,2013-06-07 23:31:00,
2013-06-07 19:37:00,52.0,51.0,29.97,SW,214,0.0,0.0,95,0.09,,,0.15,,2013-06-07 23:37:00,
2013-06-07 19:50:00,52.0,51.0,29.97,SW,214,0.0,0.0,95,0.09,,,0.15,,2013-06-07 23:50:00,
2013-06-07 20:04:00,52.0,51.0,29.96,SW,214,0.0,0.0,95,0.08,,,0.16,,2013-06-08 00:04:00,
2013-06-07 20:12:00,52.0,51.0,29.96,SW,214,0.0,0.0,95,0.05,,,0.17,,2013-06-08 00:12:00,
2013-06-07 20:18:00,52.0,51.0,29.96,SW,214,0.0,0.0,95,0.05,,,0.18,,2013-06-08 00:18:00,
2013-06-07 20:29:00,52.0,51.0,29.96,SW,214,0.0,0.0,95,0.05,,,0.18,,2013-06-08 00:29:00,
2013-06-07 20:34:00,52.0,51.0,29.95,SW,214,0.0,0.0,95,0.05,,,0.20,,2013-06-08 00:34:00,
2013-06-07 20:45:00,52.0,51.0,29.95,SW,214,0.0,0.0,95,0.05,,,0.20,,2013-06-08 00:45:00,
2013-06-07 21:01:00,52.0,51.0,29.94,SW,214,0.0,1.0,96,0.04,,,0.20,,2013-06-08 01:01:00,
2013-06-07 21:07:00,52.0,51.0,29.94,SW,214,0.0,0.0,96,0.03,,,0.20,,2013-06-08 01:07:00,
2013-06-07 21:29:00,51.0,50.0,29.94,SW,214,0.0,0.0,96,0.00,,,0.00,,2013-06-08 01:29:00,
2013-06-07 21:38:00,51.0,50.0,29.94,SW,214,0.0,0.0,96,0.01,,,0.01,,2013-06-08 01:38:00,
2013-06-07 21:45:00,51.0,50.0,29.94,SW,214,0.0,0.0,96,0.01,,,0.01,,2013-06-08 01:45:00,
2013-06-07 22:02:00,51.0,50.0,29.93,SW,214,0.0,0.0,96,0.02,,,0.02,,2013-06-08 02:02:00,
2013-06-07 22:09:00,51.0,50.0,29.94,SW,214,0.0,0.0,96,0.03,,,0.03,,2013-06-08 02:09:00,
2013-06-07 22:15:00,51.0,50.0,29.94,SW,214,0.0,0.0,96,0.03,,,0.03,,2013-06-08 02:15:00,
2013-06-07 22:29:00,51.0,50.0,29.94,SW,214,0.0,0.0,96,0.04,,,0.04,,2013-06-08 02:29:00,
2013-06-07 22:35:00,51.0,50.0,29.93,SW,214,0.0,1.0,96,0.04,,,0.05,,2013-06-08 02:35:00,
2013-06-07 22:47:00,51.0,50.0,29.93,SW,214,0.0,1.0,96,0.04,,,0.05,,2013-06-08 02:47:00,
2013-06-07 22:59:00,51.0,50.0,29.93,SW,214,0.0,0.0,96,0.04,,,0.06,,2013-06-08 02:59:00,
2013-06-07 23:09:00,51.0,50.0,29.93,SW,214,0.0,0.0,96,0.03,,,0.06,,2013-06-08 03:09:00,
2013-06-07 23:17:00,51.0,50.0,29.93,SW,214,0.0,0.0,96,0.03,,,0.06,,2013-06-08 03:17:00,
2013-06-07 23:27:00,51.0,50.0,29.92,SW,214,0.0,0.0,96,0.03,,,0.07,,2013-06-08 03:27:00,
2013-06-07 23:37:00,51.0,50.0,29.91,SW,214,0.0,0.0,96,0.04,,,0.08,,2013-06-08 03:37:00,
2013-06-07 23:52:00,51.0,50.0,29.91,SW,214,0.0,0.0,96,0.04,,,0.08,,2013-06-08 03:52:00,